Time;durP1;ratioP1;P1;durP2;ratioP2;P2;SDS_P1;SDS_P2;PMS_P1;PMS_P2;Temp;Humidity;BMP_temperature;BMP_pressure;BME280_temperature;BME280_humidity;BME280_pressure;Samples;Min_cycle;Max_cycle;Signal;HPM_P1;HPM_P2
2022/08/08 00:02:17;;;;;;;2.80;2.60;;;;;;;;;;5051130;28;20655;-67
2022/08/08 00:05:07;;;;;;;3.33;3.03;;;;;;;;;;5042494;28;20218;-65
2022/08/08 00:07:51;;;;;;;3.30;3.00;;;;;;;;;;5053704;28;20591;-65
2022/08/08 00:10:31;;;;;;;3.30;3.10;;;;;;;;;;5045350;28;20572;-66
2022/08/08 00:13:02;;;;;;;2.90;2.70;;;;;;;;;;5054024;28;20225;-65
2022/08/08 00:15:43;;;;;;;4.13;3.10;;;;;;;;;;5050809;28;20206;-65
2022/08/08 00:18:27;;;;;;;3.60;3.17;;;;;;;;;;5056630;28;20225;-65
2022/08/08 00:20:57;;;;;;;3.10;2.90;;;;;;;;;;5055068;28;21912;-65
2022/08/08 00:23:26;;;;;;;3.53;2.67;;;;;;;;;;5049161;28;20213;-65
2022/08/08 00:26:10;;;;;;;2.70;2.50;;;;;;;;;;5050297;28;20213;-65
2022/08/08 00:28:44;;;;;;;3.10;2.90;;;;;;;;;;5055764;28;20224;-67
2022/08/08 00:31:21;;;;;;;3.30;3.03;;;;;;;;;;5039816;28;20672;-65
2022/08/08 00:37:36;;;;;;;3.20;3.00;;;;;;;;;;5055878;28;20228;-65
2022/08/08 00:40:23;;;;;;;3.47;3.00;;;;;;;;;;5050648;28;20209;-65
2022/08/08 00:43:30;;;;;;;3.80;3.20;;;;;;;;;;5053316;28;20209;-65
2022/08/08 00:46:22;;;;;;;3.13;2.90;;;;;;;;;;5050995;28;20210;-65
2022/08/08 00:49:08;;;;;;;4.47;3.47;;;;;;;;;;5044399;28;20225;-64
2022/08/08 00:51:52;;;;;;;3.37;2.93;;;;;;;;;;5046014;28;20585;-65
2022/08/08 00:54:23;;;;;;;3.60;3.10;;;;;;;;;;5063150;28;20940;-65
2022/08/08 00:57:01;;;;;;;3.43;3.03;;;;;;;;;;5056776;28;20276;-64
2022/08/08 00:59:48;;;;;;;3.60;3.30;;;;;;;;;;5043933;28;20944;-63
2022/08/08 01:02:19;;;;;;;3.40;3.10;;;;;;;;;;5067651;28;20204;-63
2022/08/08 01:05:13;;;;;;;4.70;3.60;;;;;;;;;;5037849;28;20201;-65
2022/08/08 01:08:00;;;;;;;3.43;3.13;;;;;;;;;;5043844;28;20349;-65
2022/08/08 01:10:43;;;;;;;4.30;3.23;;;;;;;;;;5039758;28;20210;-63
2022/08/08 01:13:29;;;;;;;3.30;3.07;;;;;;;;;;5054957;28;20549;-65
2022/08/08 01:16:34;;;;;;;3.20;3.00;;;;;;;;;;5040062;28;20788;-64
2022/08/08 01:19:09;;;;;;;4.17;3.30;;;;;;;;;;5050501;28;20245;-63
2022/08/08 01:22:16;;;;;;;3.50;3.20;;;;;;;;;;5056591;28;20217;-63
2022/08/08 01:25:08;;;;;;;3.83;3.53;;;;;;;;;;5065938;28;20214;-65
2022/08/08 01:27:45;;;;;;;3.90;3.60;;;;;;;;;;5054188;28;20208;-65
2022/08/08 01:30:50;;;;;;;3.60;3.40;;;;;;;;;;5055682;28;20278;-64
2022/08/08 01:33:29;;;;;;;3.77;3.47;;;;;;;;;;5057823;28;20680;-65
2022/08/08 01:36:35;;;;;;;6.20;4.70;;;;;;;;;;5053359;28;20699;-63
2022/08/08 01:39:05;;;;;;;4.60;4.20;;;;;;;;;;5050502;28;20709;-63
2022/08/08 01:42:06;;;;;;;3.57;3.30;;;;;;;;;;5034980;28;20696;-65
2022/08/08 01:44:34;;;;;;;4.27;3.40;;;;;;;;;;5018577;28;20305;-65
2022/08/08 01:47:23;;;;;;;5.13;3.83;;;;;;;;;;5047987;28;20223;-65
2022/08/08 01:50:46;;;;;;;4.30;3.90;;;;;;;;;;5063121;28;20238;-65
2022/08/08 01:53:35;;;;;;;4.10;3.80;;;;;;;;;;5011923;28;20230;-65
2022/08/08 01:56:32;;;;;;;5.83;4.70;;;;;;;;;;5057290;28;20224;-65
2022/08/08 01:59:03;;;;;;;4.97;4.20;;;;;;;;;;5053065;28;20720;-65
2022/08/08 02:01:33;;;;;;;3.90;3.50;;;;;;;;;;5054399;28;20767;-65
2022/08/08 02:04:31;;;;;;;4.30;3.90;;;;;;;;;;5052398;28;20202;-65
2022/08/08 02:07:10;;;;;;;4.27;3.60;;;;;;;;;;5057189;28;20201;-65
2022/08/08 02:09:43;;;;;;;3.83;3.53;;;;;;;;;;5044916;28;20274;-64
2022/08/08 02:12:36;;;;;;;4.00;3.70;;;;;;;;;;5051039;28;20219;-65
2022/08/08 02:15:15;;;;;;;3.50;3.20;;;;;;;;;;5054015;28;20210;-65
2022/08/08 02:17:51;;;;;;;3.80;3.43;;;;;;;;;;5061296;28;20204;-64
2022/08/08 02:20:31;;;;;;;4.33;3.53;;;;;;;;;;5057959;28;20201;-64
2022/08/08 02:23:23;;;;;;;4.00;3.60;;;;;;;;;;5030139;28;20203;-64
2022/08/08 02:26:02;;;;;;;5.50;3.60;;;;;;;;;;5053351;28;20229;-64
2022/08/08 02:28:49;;;;;;;4.83;3.30;;;;;;;;;;5072703;28;20217;-63
2022/08/08 02:31:36;;;;;;;3.60;3.40;;;;;;;;;;5060341;28;20289;-64
2022/08/08 02:34:36;;;;;;;4.00;3.70;;;;;;;;;;5051745;28;20229;-64
2022/08/08 02:37:22;;;;;;;3.60;3.30;;;;;;;;;;5058172;28;20243;-64
2022/08/08 02:40:30;;;;;;;3.80;3.60;;;;;;;;;;5053275;28;20213;-65
2022/08/08 02:43:16;;;;;;;3.63;3.33;;;;;;;;;;5024070;28;20259;-63
2022/08/08 02:46:03;;;;;;;3.57;3.20;;;;;;;;;;5067240;28;20209;-64
2022/08/08 02:48:52;;;;;;;3.40;3.10;;;;;;;;;;5056174;28;20373;-63
2022/08/08 02:51:20;;;;;;;3.83;3.53;;;;;;;;;;5038363;28;20213;-63
2022/08/08 02:54:07;;;;;;;4.13;3.73;;;;;;;;;;5055728;28;20229;-63
2022/08/08 02:56:52;;;;;;;3.73;3.43;;;;;;;;;;5044652;28;20251;-63
2022/08/08 02:59:40;;;;;;;4.13;3.50;;;;;;;;;;5064111;28;20233;-63
2022/08/08 03:02:34;;;;;;;3.83;3.53;;;;;;;;;;5039881;28;20236;-63
2022/08/08 03:05:22;;;;;;;3.73;3.43;;;;;;;;;;5053274;28;20207;-64
2022/08/08 03:08:10;;;;;;;4.10;3.60;;;;;;;;;;5037030;28;20253;-64
2022/08/08 03:10:37;;;;;;;3.70;3.40;;;;;;;;;;5049465;28;20209;-64
2022/08/08 03:13:28;;;;;;;3.93;3.63;;;;;;;;;;5047289;28;20214;-64
2022/08/08 03:16:34;;;;;;;3.50;3.30;;;;;;;;;;5061203;28;20279;-63
2022/08/08 03:19:15;;;;;;;3.87;3.57;;;;;;;;;;5075510;28;20226;-64
2022/08/08 03:21:46;;;;;;;9.30;3.97;;;;;;;;;;5041335;28;20197;-64
2022/08/08 03:24:26;;;;;;;3.67;3.37;;;;;;;;;;5034588;28;20201;-63
2022/08/08 03:27:11;;;;;;;3.90;3.60;;;;;;;;;;5039562;28;20209;-64
2022/08/08 03:29:43;;;;;;;3.67;3.37;;;;;;;;;;5038486;28;20224;-64
2022/08/08 03:35:08;;;;;;;3.97;3.67;;;;;;;;;;5045949;28;20206;-65
2022/08/08 03:37:35;;;;;;;3.50;3.30;;;;;;;;;;5038356;28;20229;-65
2022/08/08 03:40:23;;;;;;;3.50;3.30;;;;;;;;;;5061441;28;20208;-63
2022/08/08 03:42:58;;;;;;;3.53;3.23;;;;;;;;;;5061211;28;20258;-64
2022/08/08 03:45:46;;;;;;;3.47;3.27;;;;;;;;;;5060776;28;20321;-65
2022/08/08 03:48:33;;;;;;;4.03;3.73;;;;;;;;;;5061139;28;20780;-65
2022/08/08 03:51:21;;;;;;;4.10;3.70;;;;;;;;;;5066764;28;20221;-65
2022/08/08 03:54:07;;;;;;;3.33;3.13;;;;;;;;;;5058815;28;20210;-65
2022/08/08 03:56:34;;;;;;;4.30;3.90;;;;;;;;;;5078488;28;20335;-65
2022/08/08 03:59:02;;;;;;;3.80;3.50;;;;;;;;;;5062473;28;20332;-65
2022/08/08 04:01:34;;;;;;;3.67;3.33;;;;;;;;;;5043977;28;20663;-66
2022/08/08 04:04:21;;;;;;;3.90;3.60;;;;;;;;;;5059561;28;20197;-65
2022/08/08 04:06:58;;;;;;;6.57;3.47;;;;;;;;;;5046932;28;20587;-65
2022/08/08 04:09:28;;;;;;;3.97;3.67;;;;;;;;;;5042074;28;20323;-65
2022/08/08 04:12:15;;;;;;;3.77;3.50;;;;;;;;;;5045672;28;20235;-64
2022/08/08 04:14:42;;;;;;;5.17;4.37;;;;;;;;;;5051404;28;20195;-63
2022/08/08 04:17:11;;;;;;;4.33;4.03;;;;;;;;;;5056184;28;20233;-65
2022/08/08 04:19:58;;;;;;;4.20;3.90;;;;;;;;;;5061088;28;20237;-64
2022/08/08 04:22:29;;;;;;;4.90;4.50;;;;;;;;;;5042923;28;20260;-63
2022/08/08 04:24:58;;;;;;;5.00;4.57;;;;;;;;;;5061008;28;20223;-65
2022/08/08 04:27:28;;;;;;;3.90;3.60;;;;;;;;;;5059786;28;20228;-63
2022/08/08 04:30:16;;;;;;;4.50;4.10;;;;;;;;;;5048932;28;20328;-65
2022/08/08 04:32:46;;;;;;;4.50;4.10;;;;;;;;;;5056076;28;20230;-64
2022/08/08 04:35:18;;;;;;;4.43;4.03;;;;;;;;;;5055974;28;20210;-64
2022/08/08 04:37:49;;;;;;;4.60;3.80;;;;;;;;;;5048411;28;20592;-65
2022/08/08 04:40:17;;;;;;;5.30;4.80;;;;;;;;;;5043927;28;20230;-63
2022/08/08 04:42:45;;;;;;;3.70;3.50;;;;;;;;;;5055499;28;20222;-64
2022/08/08 04:45:26;;;;;;;4.30;3.90;;;;;;;;;;5042741;28;20218;-64
2022/08/08 04:47:57;;;;;;;4.37;3.77;;;;;;;;;;5070630;28;20225;-66
2022/08/08 04:50:26;;;;;;;4.83;4.30;;;;;;;;;;5039809;28;20213;-65
2022/08/08 04:53:04;;;;;;;4.47;4.07;;;;;;;;;;5047239;28;20317;-65
2022/08/08 04:55:51;;;;;;;4.63;4.20;;;;;;;;;;5061145;28;20224;-65
2022/08/08 04:58:23;;;;;;;5.03;4.23;;;;;;;;;;5060207;28;20213;-65
2022/08/08 05:00:50;;;;;;;5.10;4.60;;;;;;;;;;5050145;28;20217;-63
2022/08/08 05:03:18;;;;;;;4.30;4.00;;;;;;;;;;5076214;28;20972;-65
2022/08/08 05:06:06;;;;;;;5.37;4.13;;;;;;;;;;5065413;28;20301;-64
2022/08/08 05:08:45;;;;;;;4.90;4.50;;;;;;;;;;5064039;28;20236;-64
2022/08/08 05:11:18;;;;;;;4.80;4.40;;;;;;;;;;5046794;28;20297;-65
2022/08/08 05:13:49;;;;;;;4.40;4.10;;;;;;;;;;5045769;28;20250;-65
2022/08/08 05:16:27;;;;;;;5.07;4.60;;;;;;;;;;5063388;28;20194;-65
2022/08/08 05:19:15;;;;;;;5.60;5.00;;;;;;;;;;5062264;28;20222;-65
2022/08/08 05:22:03;;;;;;;5.63;4.90;;;;;;;;;;5065959;28;20206;-65
2022/08/08 05:24:30;;;;;;;5.67;5.17;;;;;;;;;;5063424;28;20209;-66
2022/08/08 05:26:58;;;;;;;5.37;4.97;;;;;;;;;;5058663;28;20202;-64
2022/08/08 05:29:26;;;;;;;7.17;6.47;;;;;;;;;;5044012;28;20237;-62
2022/08/08 05:31:55;;;;;;;7.80;7.10;;;;;;;;;;5064500;28;20202;-64
2022/08/08 05:34:41;;;;;;;8.30;7.50;;;;;;;;;;5049798;28;20233;-65
2022/08/08 05:37:11;;;;;;;10.57;9.13;;;;;;;;;;5056267;28;22105;-66
2022/08/08 05:39:52;;;;;;;7.40;6.70;;;;;;;;;;5062020;28;21118;-67
2022/08/08 05:42:27;;;;;;;5.15;4.57;;;;;;;;;;5057069;28;20226;-66
2022/08/08 05:44:57;;;;;;;4.75;4.35;;;;;;;;;;5062012;28;20204;-65
2022/08/08 05:47:26;;;;;;;4.85;3.65;;;;;;;;;;5057831;28;20580;-65
2022/08/08 05:50:14;;;;;;;2.97;2.78;;;;;;;;;;5062441;28;20202;-64
2022/08/08 05:52:43;;;;;;;3.05;2.75;;;;;;;;;;5061123;28;20688;-66
2022/08/08 05:55:11;;;;;;;3.17;2.67;;;;;;;;;;5045257;28;20212;-65
2022/08/08 05:57:41;;;;;;;2.78;2.58;;;;;;;;;;5047245;28;20202;-66
2022/08/08 06:00:32;;;;;;;2.90;2.60;;;;;;;;;;5056754;28;20729;-67
2022/08/08 06:03:11;;;;;;;3.28;2.95;;;;;;;;;;5075636;28;20208;-66
2022/08/08 06:05:49;;;;;;;2.80;2.60;;;;;;;;;;5046865;28;20213;-65
2022/08/08 06:08:37;;;;;;;2.70;2.50;;;;;;;;;;5059611;28;20229;-65
2022/08/08 06:11:19;;;;;;;3.15;2.85;;;;;;;;;;5047047;28;20215;-66
2022/08/08 06:13:48;;;;;;;3.85;3.08;;;;;;;;;;5069324;28;20230;-65
2022/08/08 06:16:16;;;;;;;3.20;3.00;;;;;;;;;;5049396;28;20205;-65
2022/08/08 06:18:46;;;;;;;3.28;3.08;;;;;;;;;;5046865;28;20591;-66
2022/08/08 06:21:16;;;;;;;3.72;3.40;;;;;;;;;;5044915;28;20213;-64
2022/08/08 06:24:00;;;;;;;3.40;3.10;;;;;;;;;;5057966;28;20201;-65
2022/08/08 06:26:36;;;;;;;3.80;3.50;;;;;;;;;;5064295;28;20296;-68
2022/08/08 06:29:19;;;;;;;3.75;3.45;;;;;;;;;;5044772;28;20636;-66
2022/08/08 06:32:08;;;;;;;4.30;3.90;;;;;;;;;;5044935;28;20573;-66
2022/08/08 06:34:48;;;;;;;4.03;3.72;;;;;;;;;;5048992;28;20217;-65
2022/08/08 06:37:37;;;;;;;3.88;3.58;;;;;;;;;;5049410;28;20717;-64
2022/08/08 06:40:08;;;;;;;4.72;4.10;;;;;;;;;;5045114;28;20201;-64
2022/08/08 06:42:46;;;;;;;5.25;3.75;;;;;;;;;;5044421;28;20192;-64
2022/08/08 06:45:15;;;;;;;4.13;3.80;;;;;;;;;;5060594;28;20245;-64
2022/08/08 06:47:43;;;;;;;4.30;4.00;;;;;;;;;;5062606;28;20232;-63
2022/08/08 06:50:27;;;;;;;3.90;3.10;;;;;;;;;;5058042;28;20220;-64
2022/08/08 06:53:04;;;;;;;2.83;2.50;;;;;;;;;;5055564;28;20206;-65
2022/08/08 06:55:46;;;;;;;4.55;3.25;;;;;;;;;;5063341;28;20335;-67
2022/08/08 06:58:29;;;;;;;5.15;2.90;;;;;;;;;;5062897;28;20284;-67
2022/08/08 07:01:00;;;;;;;2.65;2.42;;;;;;;;;;5044251;28;20686;-65
2022/08/08 07:03:54;;;;;;;3.00;2.80;;;;;;;;;;5039826;28;20986;-65
2022/08/08 07:06:49;;;;;;;4.13;2.90;;;;;;;;;;5046843;28;20205;-65
2022/08/08 07:09:20;;;;;;;3.65;2.70;;;;;;;;;;5037944;28;20348;-66
2022/08/08 07:12:08;;;;;;;3.67;2.60;;;;;;;;;;5061121;28;20263;-65
2022/08/08 07:14:47;;;;;;;2.25;2.15;;;;;;;;;;5043416;28;20229;-66
2022/08/08 07:17:18;;;;;;;2.63;2.42;;;;;;;;;;5046887;28;20284;-65
2022/08/08 07:20:07;;;;;;;2.80;2.40;;;;;;;;;;5064769;28;20210;-65
2022/08/08 07:22:45;;;;;;;2.47;2.30;;;;;;;;;;5062638;28;20218;-67
2022/08/08 07:25:16;;;;;;;2.90;2.70;;;;;;;;;;5061411;28;20663;-66
2022/08/08 07:27:46;;;;;;;2.50;2.30;;;;;;;;;;5042877;28;20206;-66
2022/08/08 07:30:34;;;;;;;4.13;2.50;;;;;;;;;;5058493;28;20206;-65
2022/08/08 07:33:01;;;;;;;2.40;2.20;;;;;;;;;;5053907;28;20850;-67
2022/08/08 07:35:30;;;;;;;2.47;2.28;;;;;;;;;;5056601;28;20251;-67
2022/08/08 07:38:01;;;;;;;2.72;2.35;;;;;;;;;;5059319;28;20244;-68
2022/08/08 07:40:37;;;;;;;3.42;2.30;;;;;;;;;;5049983;28;20206;-65
2022/08/08 07:43:06;;;;;;;2.60;2.40;;;;;;;;;;5057138;28;20204;-65
2022/08/08 07:45:36;;;;;;;2.60;2.40;;;;;;;;;;5054603;28;20225;-67
2022/08/08 07:48:24;;;;;;;2.10;2.00;;;;;;;;;;5055216;28;20405;-66
2022/08/08 07:50:59;;;;;;;2.63;2.35;;;;;;;;;;5058531;28;20457;-66
2022/08/08 07:53:33;;;;;;;3.55;2.30;;;;;;;;;;5059591;28;21870;-66
2022/08/08 07:56:21;;;;;;;3.03;2.30;;;;;;;;;;5064220;28;20228;-65
2022/08/08 07:59:05;;;;;;;2.90;2.20;;;;;;;;;;5049787;28;20307;-67
2022/08/08 08:01:36;;;;;;;3.97;2.70;;;;;;;;;;5062193;28;20198;-65
2022/08/08 08:04:28;;;;;;;3.10;2.33;;;;;;;;;;5049291;28;20233;-68
2022/08/08 08:07:00;;;;;;;5.78;2.30;;;;;;;;;;5062132;28;20278;-65
2022/08/08 08:09:33;;;;;;;3.15;2.17;;;;;;;;;;5062877;28;20237;-67
2022/08/08 08:12:02;;;;;;;2.30;2.10;;;;;;;;;;5064662;28;20229;-68
2022/08/08 08:14:33;;;;;;;2.80;2.22;;;;;;;;;;5058712;28;20229;-65
2022/08/08 08:17:01;;;;;;;2.38;2.28;;;;;;;;;;5041721;28;20659;-66
2022/08/08 08:19:33;;;;;;;4.15;2.10;;;;;;;;;;5074493;28;20710;-66
2022/08/08 08:22:12;;;;;;;2.55;2.35;;;;;;;;;;5049058;28;20210;-66
2022/08/08 08:24:44;;;;;;;3.03;2.20;;;;;;;;;;5069212;28;20235;-67
2022/08/08 08:27:13;;;;;;;1.92;1.83;;;;;;;;;;5057582;28;20247;-65
2022/08/08 08:29:40;;;;;;;2.13;2.03;;;;;;;;;;5048198;28;20218;-65
2022/08/08 08:32:08;;;;;;;2.28;2.17;;;;;;;;;;5044510;28;20652;-66
2022/08/08 08:34:37;;;;;;;2.00;1.83;;;;;;;;;;5062869;28;20648;-65
2022/08/08 08:37:15;;;;;;;2.10;2.00;;;;;;;;;;5050921;28;20645;-65
2022/08/08 08:39:46;;;;;;;2.22;1.92;;;;;;;;;;5080021;28;20225;-62
2022/08/08 08:42:30;;;;;;;2.05;1.95;;;;;;;;;;5052096;28;20198;-65
2022/08/08 08:45:04;;;;;;;2.25;2.05;;;;;;;;;;5053439;28;20746;-65
2022/08/08 08:47:51;;;;;;;2.08;1.88;;;;;;;;;;5053227;28;20706;-64
2022/08/08 08:50:20;;;;;;;4.43;2.13;;;;;;;;;;5066388;28;20209;-65
2022/08/08 08:53:03;;;;;;;2.58;1.92;;;;;;;;;;5048807;28;20209;-65
2022/08/08 08:55:51;;;;;;;2.30;1.80;;;;;;;;;;5075555;28;20271;-67
2022/08/08 08:58:38;;;;;;;2.50;1.85;;;;;;;;;;5048871;28;20230;-65
2022/08/08 09:01:09;;;;;;;2.38;1.75;;;;;;;;;;5058807;28;20208;-68
2022/08/08 09:03:46;;;;;;;2.00;1.85;;;;;;;;;;5061108;28;20662;-66
2022/08/08 09:06:17;;;;;;;2.60;1.92;;;;;;;;;;5071245;28;20575;-68
2022/08/08 09:09:10;;;;;;;2.13;2.03;;;;;;;;;;5056983;28;20241;-66
2022/08/08 09:12:00;;;;;;;2.25;1.70;;;;;;;;;;5055586;28;20225;-66
2022/08/08 09:14:34;;;;;;;1.83;1.45;;;;;;;;;;5059972;28;20229;-65
2022/08/08 09:17:12;;;;;;;1.70;1.60;;;;;;;;;;5046014;28;20197;-64
2022/08/08 09:19:46;;;;;;;1.77;1.52;;;;;;;;;;5048700;28;20225;-65
2022/08/08 09:22:34;;;;;;;2.15;1.75;;;;;;;;;;5062104;28;20211;-67
2022/08/08 09:25:02;;;;;;;1.65;1.40;;;;;;;;;;5061596;28;20218;-65
2022/08/08 09:27:34;;;;;;;2.38;1.58;;;;;;;;;;5074845;28;20215;-67
2022/08/08 09:30:21;;;;;;;2.20;1.70;;;;;;;;;;5063054;28;20667;-67
2022/08/08 09:32:53;;;;;;;1.98;1.60;;;;;;;;;;5042756;28;20239;-64
2022/08/08 09:35:44;;;;;;;1.60;1.48;;;;;;;;;;5064887;28;20251;-65
2022/08/08 09:38:43;;;;;;;2.47;1.50;;;;;;;;;;5062606;28;20311;-65
2022/08/08 09:41:36;;;;;;;2.53;1.55;;;;;;;;;;5024940;28;20214;-64
2022/08/08 09:44:28;;;;;;;2.25;1.52;;;;;;;;;;5060101;28;20254;-65
2022/08/08 09:47:02;;;;;;;2.08;1.50;;;;;;;;;;5066298;28;20502;-66
2022/08/08 09:49:32;;;;;;;1.50;1.40;;;;;;;;;;5054871;28;20715;-65
2022/08/08 09:52:23;;;;;;;1.30;1.20;;;;;;;;;;5050799;28;20257;-65
2022/08/08 09:55:10;;;;;;;1.40;1.27;;;;;;;;;;5046247;28;20316;-65
2022/08/08 09:58:05;;;;;;;1.60;1.50;;;;;;;;;;5058433;28;20714;-65
2022/08/08 10:00:36;;;;;;;1.58;1.48;;;;;;;;;;5049545;28;20209;-65
2022/08/08 10:03:26;;;;;;;1.55;1.45;;;;;;;;;;5060810;28;20206;-65
2022/08/08 10:05:57;;;;;;;2.78;1.60;;;;;;;;;;5054326;28;20211;-65
2022/08/08 10:08:25;;;;;;;1.60;1.50;;;;;;;;;;5062779;28;20947;-68
2022/08/08 10:11:00;;;;;;;1.70;1.60;;;;;;;;;;5064659;28;20682;-65
2022/08/08 10:13:38;;;;;;;1.85;1.30;;;;;;;;;;5054919;28;20310;-68
2022/08/08 10:16:09;;;;;;;2.05;1.50;;;;;;;;;;5066138;28;20206;-65
2022/08/08 10:18:38;;;;;;;1.42;1.42;;;;;;;;;;5046087;28;20282;-67
2022/08/08 10:21:10;;;;;;;4.72;1.23;;;;;;;;;;5042763;28;20210;-68
2022/08/08 10:23:53;;;;;;;1.35;1.33;;;;;;;;;;5057855;28;20201;-66
2022/08/08 10:26:28;;;;;;;2.22;1.77;;;;;;;;;;5059800;28;20213;-68
2022/08/08 10:29:19;;;;;;;2.80;1.30;;;;;;;;;;5058498;28;20229;-66
2022/08/08 10:34:49;;;;;;;1.63;1.45;;;;;;;;;;5062787;28;20222;-65
2022/08/08 10:37:34;;;;;;;1.88;1.25;;;;;;;;;;5081116;28;20298;-65
2022/08/08 10:40:12;;;;;;;1.10;1.10;;;;;;;;;;5047569;28;20206;-65
2022/08/08 10:42:47;;;;;;;1.73;1.30;;;;;;;;;;5051805;28;20203;-65
2022/08/08 10:45:15;;;;;;;1.52;1.42;;;;;;;;;;5045031;28;20224;-65
2022/08/08 10:47:43;;;;;;;1.17;1.08;;;;;;;;;;5059604;28;20209;-66
2022/08/08 10:50:21;;;;;;;2.00;1.27;;;;;;;;;;5075796;28;20488;-66
2022/08/08 10:52:51;;;;;;;0.88;0.88;;;;;;;;;;5061724;28;20633;-64
2022/08/08 10:55:18;;;;;;;1.70;1.33;;;;;;;;;;5055948;28;20226;-66
2022/08/08 10:58:07;;;;;;;1.48;1.30;;;;;;;;;;5059781;28;20778;-66
2022/08/08 11:00:35;;;;;;;1.35;1.20;;;;;;;;;;5056997;28;20202;-66
2022/08/08 11:03:18;;;;;;;1.77;1.27;;;;;;;;;;5063471;28;20711;-66
2022/08/08 11:06:06;;;;;;;4.82;1.40;;;;;;;;;;5058860;28;20253;-66
2022/08/08 11:08:40;;;;;;;1.77;1.20;;;;;;;;;;5067480;28;20307;-65
2022/08/08 11:11:20;;;;;;;1.60;1.10;;;;;;;;;;5047533;28;20259;-64
2022/08/08 11:14:08;;;;;;;1.02;1.02;;;;;;;;;;5058944;28;20267;-65
2022/08/08 11:16:44;;;;;;;1.25;1.10;;;;;;;;;;5058040;28;20209;-65
2022/08/08 11:19:13;;;;;;;1.35;1.25;;;;;;;;;;5059664;28;20229;-67
2022/08/08 11:21:44;;;;;;;1.30;1.20;;;;;;;;;;5041060;28;20288;-67
2022/08/08 11:24:26;;;;;;;3.35;1.20;;;;;;;;;;5062610;28;20328;-67
2022/08/08 11:26:57;;;;;;;2.50;1.15;;;;;;;;;;5047102;28;20219;-67
2022/08/08 11:29:26;;;;;;;0.93;0.93;;;;;;;;;;5060551;28;20221;-66
2022/08/08 11:32:14;;;;;;;3.30;1.50;;;;;;;;;;5058717;28;20210;-67
2022/08/08 11:34:43;;;;;;;1.67;1.40;;;;;;;;;;5048258;28;20579;-65
2022/08/08 11:37:31;;;;;;;1.60;1.23;;;;;;;;;;5058555;28;20205;-65
2022/08/08 11:40:18;;;;;;;1.23;1.10;;;;;;;;;;5057204;28;20676;-65
2022/08/08 11:42:52;;;;;;;1.42;1.10;;;;;;;;;;5043232;28;20201;-65
2022/08/08 11:45:21;;;;;;;1.33;1.10;;;;;;;;;;5049877;28;20263;-65
2022/08/08 11:47:50;;;;;;;1.58;1.10;;;;;;;;;;5074548;28;20210;-65
2022/08/08 11:50:32;;;;;;;1.33;1.20;;;;;;;;;;5054721;28;20285;-65
2022/08/08 11:53:01;;;;;;;1.10;1.00;;;;;;;;;;5055375;28;20251;-66
2022/08/08 11:55:34;;;;;;;1.40;1.10;;;;;;;;;;5043995;28;20230;-65
2022/08/08 11:58:11;;;;;;;2.00;1.20;;;;;;;;;;5059921;28;20256;-66
2022/08/08 12:00:51;;;;;;;1.98;1.00;;;;;;;;;;5059049;28;20247;-66
2022/08/08 12:03:19;;;;;;;1.67;1.30;;;;;;;;;;5054333;28;20682;-67
2022/08/08 12:05:48;;;;;;;1.13;1.00;;;;;;;;;;5048597;28;20212;-65
2022/08/08 12:08:16;;;;;;;1.27;1.10;;;;;;;;;;5045860;28;20230;-65
2022/08/08 12:10:47;;;;;;;1.20;1.10;;;;;;;;;;5047499;28;20297;-65
2022/08/08 12:13:20;;;;;;;1.02;1.02;;;;;;;;;;5048985;28;20224;-65
2022/08/08 12:16:07;;;;;;;1.40;1.30;;;;;;;;;;5049637;28;20221;-65
2022/08/08 12:18:45;;;;;;;1.58;1.10;;;;;;;;;;5060866;28;20243;-65
2022/08/08 12:21:28;;;;;;;2.92;1.10;;;;;;;;;;5071960;28;20209;-65
2022/08/08 12:24:18;;;;;;;1.25;1.10;;;;;;;;;;5073604;28;20229;-65
2022/08/08 12:26:50;;;;;;;2.50;1.00;;;;;;;;;;5052866;28;20867;-65
2022/08/08 12:29:20;;;;;;;1.00;1.00;;;;;;;;;;5045291;28;20232;-65
2022/08/08 12:31:48;;;;;;;1.13;0.95;;;;;;;;;;5043021;28;20210;-65
2022/08/08 12:34:32;;;;;;;1.27;1.17;;;;;;;;;;5061736;28;20289;-65
2022/08/08 12:37:06;;;;;;;0.90;0.90;;;;;;;;;;5056454;28;20203;-65
2022/08/08 12:39:37;;;;;;;2.35;1.00;;;;;;;;;;5051892;28;20749;-65
2022/08/08 12:42:25;;;;;;;1.52;1.20;;;;;;;;;;5048197;28;20198;-65
2022/08/08 12:45:04;;;;;;;2.55;0.90;;;;;;;;;;5065932;28;20356;-65
2022/08/08 12:47:58;;;;;;;1.90;0.90;;;;;;;;;;5045913;28;20287;-66
2022/08/08 12:50:45;;;;;;;2.10;1.20;;;;;;;;;;5073811;28;20645;-66
2022/08/08 12:53:20;;;;;;;3.35;1.23;;;;;;;;;;5058942;28;20213;-66
2022/08/08 12:56:09;;;;;;;2.20;1.30;;;;;;;;;;5048101;28;20312;-65
2022/08/08 12:58:47;;;;;;;0.90;0.90;;;;;;;;;;5060001;28;20226;-66
2022/08/08 13:01:15;;;;;;;1.95;1.00;;;;;;;;;;5059379;28;20199;-66
2022/08/08 13:03:46;;;;;;;1.13;1.02;;;;;;;;;;5071062;28;20684;-65
2022/08/08 13:06:19;;;;;;;0.85;0.85;;;;;;;;;;5054042;28;20229;-65
2022/08/08 13:08:50;;;;;;;2.60;1.17;;;;;;;;;;5053754;28;20274;-65
2022/08/08 13:11:26;;;;;;;2.03;1.10;;;;;;;;;;5059350;28;20236;-65
2022/08/08 13:14:14;;;;;;;1.45;1.27;;;;;;;;;;5067415;28;20648;-66
2022/08/08 13:16:43;;;;;;;2.20;1.20;;;;;;;;;;5051512;28;20230;-65
2022/08/08 13:19:15;;;;;;;1.35;1.10;;;;;;;;;;5077450;28;20221;-65
2022/08/08 13:21:46;;;;;;;1.30;1.20;;;;;;;;;;5058440;28;20236;-67
2022/08/08 13:24:35;;;;;;;1.27;1.17;;;;;;;;;;5065496;28;20165;-65
2022/08/08 13:27:15;;;;;;;0.90;0.90;;;;;;;;;;5046661;28;20202;-64
2022/08/08 13:29:53;;;;;;;1.80;1.30;;;;;;;;;;5048392;28;20734;-66
2022/08/08 13:32:21;;;;;;;1.30;1.20;;;;;;;;;;5066971;28;20262;-66
2022/08/08 13:34:52;;;;;;;2.05;1.08;;;;;;;;;;5047860;28;20252;-64
2022/08/08 13:37:21;;;;;;;4.30;1.35;;;;;;;;;;5042642;28;20288;-65
2022/08/08 13:40:10;;;;;;;6.85;1.23;;;;;;;;;;5049016;28;20252;-66
2022/08/08 13:42:44;;;;;;;2.15;1.20;;;;;;;;;;5047077;28;20296;-64
2022/08/08 13:45:13;;;;;;;0.98;0.90;;;;;;;;;;5046916;28;20214;-66
2022/08/08 13:47:41;;;;;;;1.58;1.10;;;;;;;;;;5062684;28;20201;-63
2022/08/08 13:50:24;;;;;;;3.55;1.10;;;;;;;;;;5051985;28;20205;-67
2022/08/08 13:53:09;;;;;;;2.58;1.17;;;;;;;;;;5062379;28;20209;-64
2022/08/08 13:56:04;;;;;;;1.42;1.10;;;;;;;;;;5050516;28;20225;-66
2022/08/08 13:58:33;;;;;;;1.70;1.00;;;;;;;;;;5041282;28;20233;-68
2022/08/08 14:01:15;;;;;;;1.38;0.98;;;;;;;;;;5048334;28;20210;-66
2022/08/08 14:04:00;;;;;;;1.10;1.00;;;;;;;;;;5061726;28;20209;-65
2022/08/08 14:06:29;;;;;;;1.10;1.00;;;;;;;;;;5055753;28;20221;-66
2022/08/08 14:09:02;;;;;;;2.90;1.05;;;;;;;;;;5045196;28;20583;-68
2022/08/08 14:11:50;;;;;;;1.23;0.85;;;;;;;;;;5064479;28;20201;-68
2022/08/08 14:14:17;;;;;;;1.73;1.00;;;;;;;;;;5077148;28;20217;-65
2022/08/08 14:16:53;;;;;;;1.88;1.10;;;;;;;;;;5045425;28;20217;-66
2022/08/08 14:19:41;;;;;;;1.00;1.00;;;;;;;;;;5050594;28;20683;-65
2022/08/08 14:22:29;;;;;;;2.03;1.10;;;;;;;;;;5048153;28;20204;-66
2022/08/08 14:25:00;;;;;;;2.47;0.90;;;;;;;;;;5054720;28;20205;-64
2022/08/08 14:27:31;;;;;;;3.50;1.10;;;;;;;;;;5059401;28;20217;-64
2022/08/08 14:30:01;;;;;;;1.73;1.00;;;;;;;;;;5054252;28;20579;-67
2022/08/08 14:32:35;;;;;;;2.25;0.90;;;;;;;;;;5061487;28;20296;-66
2022/08/08 14:35:08;;;;;;;3.28;1.45;;;;;;;;;;5057389;28;20261;-65
2022/08/08 14:37:43;;;;;;;1.65;0.98;;;;;;;;;;5052355;28;20202;-66
2022/08/08 14:40:30;;;;;;;1.70;1.10;;;;;;;;;;5059396;28;20632;-65
2022/08/08 14:42:58;;;;;;;1.10;1.00;;;;;;;;;;5062608;28;20202;-65
2022/08/08 14:45:46;;;;;;;3.60;1.08;;;;;;;;;;5055677;28;20209;-66
2022/08/08 14:48:39;;;;;;;3.60;1.10;;;;;;;;;;5044006;28;20256;-65
2022/08/08 14:51:18;;;;;;;3.05;1.00;;;;;;;;;;5060853;28;20582;-64
2022/08/08 14:53:49;;;;;;;1.20;1.10;;;;;;;;;;5058307;28;20201;-65
2022/08/08 14:56:22;;;;;;;0.90;0.90;;;;;;;;;;5059401;28;20710;-64
2022/08/08 14:58:51;;;;;;;2.25;1.05;;;;;;;;;;5044461;28;20252;-65
2022/08/08 15:01:29;;;;;;;2.00;1.00;;;;;;;;;;5045923;28;20205;-65
2022/08/08 15:04:08;;;;;;;1.17;0.90;;;;;;;;;;5048930;28;20657;-65
2022/08/08 15:06:36;;;;;;;1.00;1.00;;;;;;;;;;5044297;28;20210;-64
2022/08/08 15:09:05;;;;;;;1.00;0.90;;;;;;;;;;5037699;28;20300;-65
2022/08/08 15:11:33;;;;;;;2.55;1.05;;;;;;;;;;5046491;28;20242;-65
2022/08/08 15:14:13;;;;;;;2.78;0.98;;;;;;;;;;5057991;28;20210;-65
2022/08/08 15:16:41;;;;;;;1.70;1.30;;;;;;;;;;5062737;28;20225;-65
2022/08/08 15:19:10;;;;;;;4.35;1.00;;;;;;;;;;5025912;28;20691;-65
2022/08/08 15:21:43;;;;;;;1.02;1.00;;;;;;;;;;5051366;28;20814;-64
2022/08/08 15:24:12;;;;;;;1.90;1.10;;;;;;;;;;5063401;28;20225;-64
2022/08/08 15:26:43;;;;;;;1.15;1.10;;;;;;;;;;5051588;28;20211;-66
2022/08/08 15:29:19;;;;;;;1.75;1.10;;;;;;;;;;5037264;28;20225;-66
2022/08/08 15:31:50;;;;;;;1.17;1.08;;;;;;;;;;5033757;28;20205;-66
2022/08/08 15:34:38;;;;;;;0.95;0.95;;;;;;;;;;5039607;28;20248;-65
2022/08/08 15:37:05;;;;;;;0.90;0.90;;;;;;;;;;5053099;28;20555;-65
2022/08/08 15:39:34;;;;;;;0.95;0.95;;;;;;;;;;5052373;28;21726;-65
2022/08/08 15:42:06;;;;;;;2.03;1.00;;;;;;;;;;5046514;28;21799;-64
2022/08/08 15:44:50;;;;;;;0.90;0.90;;;;;;;;;;5038323;28;20288;-65
2022/08/08 15:47:21;;;;;;;2.47;1.05;;;;;;;;;;5032532;28;20266;-65
2022/08/08 15:49:49;;;;;;;1.42;1.10;;;;;;;;;;5049049;28;20222;-65
2022/08/08 15:52:18;;;;;;;1.20;1.10;;;;;;;;;;5055250;28;20267;-64
2022/08/08 15:54:54;;;;;;;1.00;0.95;;;;;;;;;;5053844;28;20601;-65
2022/08/08 15:57:22;;;;;;;1.00;1.00;;;;;;;;;;5039226;28;20334;-65
2022/08/08 15:59:51;;;;;;;1.52;1.00;;;;;;;;;;5042075;28;20342;-65